Saint George, Georgia
Current Conditions -  °F | °C
As of 9:56 PM on Friday 19 Dec 2014 (Local Time) from KJAX Reporting Station
Overcast Overcast  
Wind Chill: 53°   Ceiling: 12000
Heat Index: 53°   Visibility: 10mi
Dew Point: 51°   Wind: 3mph
Humidity: 93%   Direction: 340°NNW
Pressure: 30.13"   Gusts: NA
Location:  30.52°N, 82.04°W
Report Text: KJAX 200256Z 34003KT 10SM BKN120 OVC250 12/11 A3013 RMK AO2 SLP202 T01170106 53016
Loading
Personal Weather Stations






























Interactive Weather Map New forecast layout! Learn more

10-Day Weather Forecast

Advertisements
Track Severe Weather on mobile